This is the latest recevied weather packets stored in our database for station/object 9M2RSI-1. If no packets are shown the sender has not sent any weather packets the latest 10 day(s).
| Time | Temp. | Humidity | Pressure | Rain* | Wind** | Luminosity | Snow |
|---|---|---|---|---|---|---|---|
| 1777939224 | 27.78° C | 77% | 1010.3 hPa | - | - | - | - |
| 1777938324 | 27.22° C | 76% | 1010.3 hPa | - | - | - | - |
| 1777937424 | 27.22° C | 76% | 1010.2 hPa | - | - | - | - |
| 1777900500 | 30.56° C | 67% | 1010.2 hPa | - | - | - | - |
| 1777896900 | 31.11° C | 66% | 1009.9 hPa | - | - | - | - |
| 1777896000 | 31.11° C | 66% | 1009.8 hPa | - | - | - | - |
| 1777895100 | 31.67° C | 65% | 1010 hPa | - | - | - | - |
| 1777894200 | 31.67° C | 65% | 1009.8 hPa | - | - | - | - |
| 1777893300 | 31.67° C | 63% | 1009.4 hPa | - | - | - | - |
| 1777892399 | 32.22° C | 62% | 1009 hPa | - | - | - | - |
| 1777891499 | 32.22° C | 60% | 1008.4 hPa | - | - | - | - |
| 1777889699 | 32.78° C | 58% | 1008.2 hPa | - | - | - | - |
| 1777886999 | 33.33° C | 59% | 1007.5 hPa | - | - | - | - |
| 1777886099 | 33.33° C | 60% | 1007.6 hPa | - | - | - | - |
| 1777885199 | 33.33° C | 61% | 1007.8 hPa | - | - | - | - |
| 1777884299 | 33.33° C | 60% | 1007.6 hPa | - | - | - | - |
| 1777883399 | 33.33° C | 60% | 1007.7 hPa | - | - | - | - |
| 1777882498 | 33.33° C | 60% | 1007.6 hPa | - | - | - | - |
| 1777881598 | 33.33° C | 59% | 1007.8 hPa | - | - | - | - |
| 1777880698 | 33.33° C | 59% | 1007.9 hPa | - | - | - | - |
| 1777879798 | 33.33° C | 59% | 1008.2 hPa | - | - | - | - |
| 1777878898 | 33.33° C | 59% | 1008.4 hPa | - | - | - | - |
| 1777877998 | 33.33° C | 60% | 1008.7 hPa | - | - | - | - |
| 1777875298 | 32.78° C | 62% | 1009.8 hPa | - | - | - | - |
| 1777874398 | 32.78° C | 62% | 1010.1 hPa | - | - | - | - |
* Rain since midnight (hover to see other rain measurements)
** Current wind speed in m/s (hover to see current wind gust speed)